createdAt,value
2022-12-15T00:02:27.799Z,1.62
2022-12-15T00:05:13.007Z,1.64
2022-12-15T00:07:59.494Z,1.37
2022-12-15T00:10:44.974Z,1.34
2022-12-15T00:13:31.566Z,1.25
2022-12-15T00:16:17.691Z,1.03
2022-12-15T00:19:03.477Z,1.03
2022-12-15T00:21:48.804Z,1.00
2022-12-15T00:24:35.437Z,1.31
2022-12-15T00:27:20.764Z,1.45
2022-12-15T00:30:06.216Z,1.53
2022-12-15T00:32:51.648Z,1.71
2022-12-15T00:35:37.064Z,1.82
2022-12-15T00:38:26.453Z,1.89
2022-12-15T00:40:59.378Z,1.92
2022-12-15T00:43:27.835Z,1.82
2022-12-15T00:46:13.804Z,1.79
2022-12-15T00:48:42.097Z,1.87
2022-12-15T00:51:08.912Z,1.93
2022-12-15T00:53:54.789Z,1.91
2022-12-15T00:56:41.401Z,1.89
2022-12-15T00:59:26.986Z,1.96
2022-12-15T01:02:12.307Z,1.92
2022-12-15T01:04:57.595Z,1.60
2022-12-15T01:07:42.797Z,1.41
2022-12-15T01:10:28.177Z,1.17
2022-12-15T01:13:14.965Z,0.99
2022-12-15T01:16:00.177Z,0.89
2022-12-15T01:18:49.555Z,0.80
2022-12-15T01:21:17.547Z,0.77
2022-12-15T01:23:45.267Z,0.77
2022-12-15T01:26:13.228Z,0.83
2022-12-15T01:28:42.311Z,0.88
2022-12-15T01:31:13.699Z,0.84
2022-12-15T01:33:42.644Z,0.78
2022-12-15T01:36:11.450Z,0.72
2022-12-15T01:38:39.260Z,0.67
2022-12-15T01:41:09.520Z,0.67
2022-12-15T01:43:39.448Z,0.65
2022-12-15T01:46:10.271Z,0.62
2022-12-15T01:48:43.120Z,0.63
2022-12-15T01:51:16.815Z,0.66
2022-12-15T01:53:50.122Z,0.91
2022-12-15T01:56:18.794Z,1.08
2022-12-15T01:58:49.772Z,1.08
2022-12-15T02:01:19.479Z,1.06
2022-12-15T02:03:48.268Z,0.89
2022-12-15T02:06:17.210Z,0.80
2022-12-15T02:08:47.459Z,0.74
2022-12-15T02:11:32.728Z,0.83
2022-12-15T02:14:03.577Z,0.86
2022-12-15T02:16:46.077Z,0.79
2022-12-15T02:19:40.453Z,0.77
2022-12-15T02:22:20.351Z,0.71
2022-12-15T02:25:08.987Z,0.66
2022-12-15T02:27:57.647Z,0.63
2022-12-15T02:31:08.195Z,0.69
2022-12-15T02:33:39.109Z,0.70
2022-12-15T02:36:16.327Z,0.63
2022-12-15T02:38:44.978Z,0.55
2022-12-15T02:41:36.364Z,0.51
2022-12-15T02:44:11.261Z,0.46
2022-12-15T02:46:52.372Z,0.48
2022-12-15T02:49:31.224Z,0.76
2022-12-15T02:52:10.933Z,1.07
2022-12-15T02:55:02.305Z,1.03
2022-12-15T02:57:37.583Z,0.85
2022-12-15T03:00:09.693Z,0.69
2022-12-15T03:02:42.503Z,0.96
2022-12-15T03:05:10.967Z,1.12
2022-12-15T03:07:38.870Z,0.91
2022-12-15T03:10:08.247Z,0.75
2022-12-15T03:12:35.938Z,0.59
2022-12-15T03:15:03.609Z,0.48
2022-12-15T03:17:31.310Z,0.37
2022-12-15T03:20:00.533Z,0.26
2022-12-15T03:22:28.225Z,0.20
2022-12-15T03:24:55.960Z,0.14
2022-12-15T03:27:23.678Z,0.07
2022-12-15T03:29:51.335Z,0.10
2022-12-15T03:32:19.116Z,0.08
2022-12-15T03:34:46.875Z,0.09
2022-12-15T03:37:15.883Z,0.00
2022-12-15T03:39:43.561Z,-0.04
2022-12-15T03:42:11.385Z,0.01
2022-12-15T03:44:39.077Z,-0.08
2022-12-15T03:47:07.003Z,-0.13
2022-12-15T03:49:34.683Z,-0.25
2022-12-15T03:52:02.350Z,-0.27
2022-12-15T03:54:31.428Z,-0.35
2022-12-15T03:56:59.783Z,-0.41
2022-12-15T03:59:27.437Z,-0.41
2022-12-15T04:01:55.195Z,-0.40
2022-12-15T04:04:22.903Z,-0.39
2022-12-15T04:06:52.265Z,-0.43
2022-12-15T04:09:20.324Z,-0.49
2022-12-15T04:11:49.336Z,-0.52
2022-12-15T04:14:16.965Z,-0.53
2022-12-15T04:16:44.740Z,-0.49
2022-12-15T04:19:29.868Z,-0.46
2022-12-15T04:21:58.093Z,-0.41
2022-12-15T04:24:43.400Z,-0.40
2022-12-15T04:27:30.041Z,-0.43
2022-12-15T04:30:15.339Z,-0.45
2022-12-15T04:33:00.836Z,-0.59
2022-12-15T04:35:46.219Z,-0.63
2022-12-15T04:38:35.273Z,-0.64
2022-12-15T04:41:20.663Z,-0.63
2022-12-15T04:44:07.199Z,-0.57
2022-12-15T04:46:52.644Z,-0.62
2022-12-15T04:49:38.140Z,-0.59
2022-12-15T04:52:23.450Z,-0.55
2022-12-15T04:55:08.928Z,-0.58
2022-12-15T04:57:54.361Z,-0.57
2022-12-15T05:00:41.296Z,-0.61
2022-12-15T05:03:27.238Z,-0.53
2022-12-15T05:06:12.501Z,-0.47
2022-12-15T05:08:57.974Z,-0.42
2022-12-15T05:11:43.285Z,-0.40
2022-12-15T05:14:28.603Z,-0.40
2022-12-15T05:17:15.392Z,-0.50
2022-12-15T05:20:00.769Z,-0.49
2022-12-15T05:22:46.256Z,-0.53
2022-12-15T05:25:31.489Z,-0.50
2022-12-15T05:28:16.950Z,-0.48
2022-12-15T05:31:02.387Z,-0.44
2022-12-15T05:33:31.777Z,-0.31
2022-12-15T05:35:59.686Z,-0.21
2022-12-15T05:38:27.394Z,-0.01
2022-12-15T05:40:58.375Z,0.10
2022-12-15T05:43:26.724Z,-0.07
2022-12-15T05:45:54.591Z,0.00
2022-12-15T05:48:22.391Z,-0.07
2022-12-15T05:50:51.580Z,-0.21
2022-12-15T05:53:19.207Z,-0.14
2022-12-15T05:55:46.941Z,-0.07
2022-12-15T05:58:14.603Z,0.01
2022-12-15T06:00:42.305Z,-0.16
2022-12-15T06:03:10.180Z,-0.23
2022-12-15T06:05:38.409Z,-0.36
2022-12-15T06:08:07.587Z,-0.45
2022-12-15T06:10:35.268Z,-0.38
2022-12-15T06:13:02.967Z,-0.18
2022-12-15T06:15:30.672Z,-0.30
2022-12-15T06:17:58.406Z,-0.46
2022-12-15T06:20:26.070Z,-0.31
2022-12-15T06:22:53.680Z,-0.04
2022-12-15T06:25:22.839Z,-0.20
2022-12-15T06:27:50.527Z,-0.46
2022-12-15T06:30:19.092Z,-0.58
2022-12-15T06:32:46.804Z,-0.70
2022-12-15T06:35:17.655Z,-0.64
2022-12-15T06:37:45.291Z,-0.62
2022-12-15T06:40:13.092Z,-0.70
2022-12-15T06:42:42.103Z,-0.81
2022-12-15T06:45:10.696Z,-0.92
2022-12-15T06:47:38.433Z,-0.84
2022-12-15T06:50:07.840Z,-0.92
2022-12-15T06:52:35.567Z,-0.89
2022-12-15T06:55:03.343Z,-0.95
2022-12-15T06:57:31.115Z,-0.99
2022-12-15T07:00:00.493Z,-1.01
2022-12-15T07:02:30.167Z,-0.99
2022-12-15T07:04:57.918Z,-0.96
2022-12-15T07:07:25.893Z,-0.84
2022-12-15T07:09:53.566Z,-0.84
2022-12-15T07:12:21.243Z,-0.85
2022-12-15T07:14:53.423Z,-0.87
2022-12-15T07:17:23.247Z,-0.85
2022-12-15T07:19:50.972Z,-0.79
2022-12-15T07:22:18.612Z,-0.90
2022-12-15T07:24:46.412Z,-0.88
2022-12-15T07:27:14.258Z,-0.83
2022-12-15T07:29:42.144Z,-0.83
2022-12-15T07:32:09.803Z,-1.00
2022-12-15T07:34:38.774Z,-1.14
2022-12-15T07:37:06.565Z,-1.24
2022-12-15T07:39:34.327Z,-1.30
2022-12-15T07:42:01.971Z,-1.34
2022-12-15T07:44:30.023Z,-1.29
2022-12-15T07:46:57.710Z,-1.25
2022-12-15T07:49:25.400Z,-1.22
2022-12-15T07:51:58.346Z,-1.18
2022-12-15T07:54:26.014Z,-1.14
2022-12-15T07:56:53.654Z,-1.01
2022-12-15T07:59:21.354Z,-0.89
2022-12-15T08:01:49.512Z,-0.93
2022-12-15T08:04:17.466Z,-0.91
2022-12-15T08:06:45.638Z,-0.89
2022-12-15T08:09:14.925Z,-0.89
2022-12-15T08:11:43.109Z,-0.92
2022-12-15T08:14:16.966Z,-0.82
2022-12-15T08:16:45.789Z,-0.83
2022-12-15T08:19:15.569Z,-0.80
2022-12-15T08:21:45.472Z,-0.80
2022-12-15T08:24:15.769Z,-0.70
2022-12-15T08:26:50.497Z,-0.57
2022-12-15T08:29:49.562Z,-0.52
2022-12-15T08:32:06.696Z,-0.41
2022-12-15T08:34:34.495Z,-0.43
2022-12-15T08:37:02.287Z,-0.39
2022-12-15T08:39:31.462Z,-0.34
2022-12-15T08:41:59.107Z,-0.31
2022-12-15T08:44:28.027Z,-0.41
2022-12-15T08:46:55.665Z,-0.38
2022-12-15T08:49:23.521Z,-0.42
2022-12-15T08:51:52.227Z,-0.41
2022-12-15T08:54:21.377Z,-0.41
2022-12-15T08:56:50.576Z,-0.39
2022-12-15T08:59:19.234Z,-0.16
2022-12-15T09:01:47.354Z,-0.17
2022-12-15T09:04:15.643Z,-0.08
2022-12-15T09:06:43.739Z,0.00
2022-12-15T09:09:14.665Z,0.08
2022-12-15T09:11:42.474Z,0.11
2022-12-15T09:14:11.713Z,0.15
2022-12-15T09:16:39.662Z,0.38
2022-12-15T09:19:08.220Z,0.58
2022-12-15T09:21:36.319Z,0.66
2022-12-15T09:24:05.069Z,0.69
2022-12-15T09:26:34.864Z,0.74
2022-12-15T09:29:03.067Z,0.80
2022-12-15T09:31:34.493Z,0.86
2022-12-15T09:34:02.719Z,1.03
2022-12-15T09:36:32.730Z,1.17
2022-12-15T09:39:02.846Z,1.60
2022-12-15T09:41:33.095Z,1.80
2022-12-15T09:44:03.654Z,2.02
2022-12-15T09:46:50.085Z,1.96
2022-12-15T09:49:30.575Z,2.04
2022-12-15T09:52:08.818Z,2.16
2022-12-15T09:54:39.041Z,2.17
2022-12-15T09:57:14.374Z,2.25
2022-12-15T09:59:56.639Z,2.26
2022-12-15T10:02:58.240Z,2.24
2022-12-15T10:08:30.375Z,1.96
2022-12-15T10:11:00.847Z,1.83
2022-12-15T10:13:41.212Z,1.70
2022-12-15T10:16:19.796Z,1.84
2022-12-15T10:19:01.405Z,2.15
2022-12-15T10:21:46.259Z,2.23
2022-12-15T10:24:44.575Z,2.42
2022-12-15T10:27:33.306Z,2.56
2022-12-15T10:30:04.515Z,2.61
2022-12-15T10:32:50.371Z,2.70
2022-12-15T10:35:35.966Z,2.92
2022-12-15T10:38:06.205Z,3.08
2022-12-15T10:40:51.246Z,3.17
2022-12-15T10:43:29.236Z,3.35
2022-12-15T10:46:13.508Z,3.78
2022-12-15T10:48:42.040Z,3.79
2022-12-15T10:51:20.427Z,3.64
2022-12-15T10:53:50.609Z,3.42
2022-12-15T10:56:28.823Z,3.33
2022-12-15T10:59:03.604Z,3.03
2022-12-15T11:01:33.480Z,2.83
2022-12-15T11:04:02.612Z,2.83
2022-12-15T11:06:34.463Z,3.03
2022-12-15T11:09:21.678Z,3.11
2022-12-15T11:12:11.948Z,3.11
2022-12-15T11:14:46.164Z,3.10
2022-12-15T11:17:17.824Z,3.11
2022-12-15T11:19:54.002Z,3.01
2022-12-15T11:22:37.067Z,2.98
2022-12-15T11:25:10.903Z,2.94
2022-12-15T11:27:43.508Z,2.81
2022-12-15T11:30:15.177Z,2.76
2022-12-15T11:32:45.645Z,2.54
2022-12-15T11:35:20.600Z,2.37
2022-12-15T11:37:52.997Z,2.28
2022-12-15T11:40:31.862Z,2.08
2022-12-15T11:43:18.578Z,1.87
2022-12-15T11:45:55.363Z,1.81
2022-12-15T11:48:27.850Z,1.75
2022-12-15T11:51:00.838Z,1.68
2022-12-15T11:53:57.858Z,1.58
2022-12-15T11:56:32.226Z,1.46
2022-12-15T11:59:20.270Z,1.42
2022-12-15T12:02:05.178Z,1.28
2022-12-15T12:04:44.090Z,1.23
2022-12-15T12:07:23.475Z,1.17
2022-12-15T12:10:06.168Z,1.16
2022-12-15T12:12:41.282Z,1.10
2022-12-15T12:15:27.780Z,1.21
2022-12-15T12:18:02.613Z,1.42
2022-12-15T12:20:42.182Z,1.64
2022-12-15T12:23:17.935Z,1.75
2022-12-15T12:26:02.630Z,1.80
2022-12-15T12:28:40.851Z,1.76
2022-12-15T12:31:21.406Z,1.70
2022-12-15T12:33:53.003Z,1.91
2022-12-15T12:36:20.732Z,1.89
2022-12-15T12:38:51.199Z,1.83
2022-12-15T12:41:31.719Z,1.82
2022-12-15T12:44:03.169Z,1.81
2022-12-15T12:46:34.603Z,1.83
2022-12-15T12:49:07.016Z,1.78
2022-12-15T12:51:36.210Z,1.74
2022-12-15T12:54:11.778Z,1.68
2022-12-15T12:56:44.001Z,1.58
2022-12-15T12:59:39.036Z,1.40
2022-12-15T13:02:42.058Z,1.31
2022-12-15T13:05:25.439Z,1.24
2022-12-15T13:07:56.242Z,1.24
2022-12-15T13:10:25.731Z,1.24
2022-12-15T13:12:55.871Z,1.25
2022-12-15T13:15:38.199Z,1.19
2022-12-15T13:18:16.205Z,1.12
2022-12-15T13:20:45.368Z,1.12
2022-12-15T13:23:37.491Z,1.11
2022-12-15T13:26:16.036Z,1.11
2022-12-15T13:28:52.014Z,1.19
2022-12-15T13:31:34.763Z,1.27
2022-12-15T13:34:13.941Z,1.33
2022-12-15T13:37:00.231Z,1.30
2022-12-15T13:39:59.519Z,1.33
2022-12-15T13:42:51.263Z,1.28
2022-12-15T13:45:50.219Z,1.31
2022-12-15T13:48:41.158Z,1.33
2022-12-15T13:51:25.501Z,1.39
2022-12-15T13:53:58.528Z,1.46
2022-12-15T13:56:42.780Z,1.61
2022-12-15T13:59:20.358Z,1.64
2022-12-15T14:01:53.862Z,1.65
2022-12-15T14:04:22.860Z,1.73
2022-12-15T14:06:53.849Z,1.73
2022-12-15T14:09:26.894Z,1.70
2022-12-15T14:11:55.041Z,1.68
2022-12-15T14:14:27.695Z,1.66
2022-12-15T14:17:04.723Z,1.61
2022-12-15T14:19:39.874Z,1.57
2022-12-15T14:22:25.178Z,1.52
2022-12-15T14:25:08.741Z,1.58
2022-12-15T14:27:36.497Z,1.56
2022-12-15T14:30:22.247Z,1.55
2022-12-15T14:32:56.368Z,1.46
2022-12-15T14:35:30.852Z,1.40
2022-12-15T14:38:02.024Z,1.31
2022-12-15T14:40:30.851Z,1.24
2022-12-15T14:42:59.053Z,1.20
2022-12-15T14:45:29.440Z,1.14
2022-12-15T14:50:51.240Z,1.07
2022-12-15T14:53:22.011Z,1.03
2022-12-15T14:55:49.829Z,0.91
2022-12-15T14:58:33.201Z,0.82
2022-12-15T15:01:01.926Z,0.76
2022-12-15T15:03:03.660Z,1.97
2022-12-15T15:03:40.844Z,0.82
2022-12-15T15:06:18.789Z,0.85
2022-12-15T15:08:49.281Z,0.83
2022-12-15T15:11:29.336Z,0.96
2022-12-15T15:13:59.607Z,1.03
2022-12-15T15:16:27.535Z,1.02
2022-12-15T15:18:57.760Z,1.00
2022-12-15T15:21:28.176Z,0.78
2022-12-15T15:24:00.304Z,0.74
2022-12-15T15:26:28.757Z,0.61
2022-12-15T15:28:56.735Z,0.67
2022-12-15T15:31:35.245Z,0.65
2022-12-15T15:34:09.311Z,0.64
2022-12-15T15:36:39.380Z,0.54
2022-12-15T15:39:13.599Z,0.53
2022-12-15T15:41:41.397Z,0.53
2022-12-15T15:44:14.478Z,0.66
2022-12-15T15:46:47.324Z,0.52
2022-12-15T15:49:19.499Z,0.42
2022-12-15T15:51:47.263Z,0.41
2022-12-15T15:54:17.506Z,0.35
2022-12-15T15:56:45.261Z,0.41
2022-12-15T15:59:16.373Z,0.32
2022-12-15T16:01:44.288Z,0.21
2022-12-15T16:04:12.281Z,0.18
2022-12-15T16:06:47.006Z,0.14
2022-12-15T16:09:17.037Z,0.10
2022-12-15T16:11:46.179Z,0.25
2022-12-15T16:14:15.586Z,0.27
2022-12-15T16:16:43.860Z,0.19
2022-12-15T16:19:12.086Z,0.16
2022-12-15T16:21:41.923Z,0.25
2022-12-15T16:24:12.390Z,0.24
2022-12-15T16:26:47.158Z,0.28
2022-12-15T16:29:17.372Z,0.22
2022-12-15T16:31:45.995Z,0.20
2022-12-15T16:34:14.167Z,0.27
2022-12-15T16:36:43.775Z,0.32
2022-12-15T16:39:24.706Z,0.33
2022-12-15T16:41:53.962Z,0.35
2022-12-15T16:44:22.257Z,0.42
2022-12-15T16:46:50.009Z,0.54
2022-12-15T16:49:18.138Z,0.60
2022-12-15T16:51:49.074Z,0.57
2022-12-15T16:54:20.829Z,0.49
2022-12-15T16:56:48.783Z,0.46
2022-12-15T16:59:34.867Z,0.58
2022-12-15T17:02:04.089Z,0.68
2022-12-15T17:04:32.003Z,0.73
2022-12-15T17:07:01.196Z,0.74
2022-12-15T17:09:29.660Z,0.64
2022-12-15T17:11:58.958Z,0.61
2022-12-15T17:14:26.755Z,0.64
2022-12-15T17:16:54.978Z,0.46
2022-12-15T17:19:22.894Z,0.45
2022-12-15T17:21:53.511Z,0.36
2022-12-15T17:24:23.079Z,0.41
2022-12-15T17:26:51.448Z,0.50
2022-12-15T17:29:22.845Z,0.48
2022-12-15T17:31:50.842Z,0.62
2022-12-15T17:34:27.016Z,0.55
2022-12-15T17:36:55.303Z,0.53
2022-12-15T17:39:24.642Z,0.57
2022-12-15T17:42:01.560Z,0.65
2022-12-15T17:44:35.058Z,0.64
2022-12-15T17:47:09.641Z,0.54
2022-12-15T17:49:38.829Z,0.54
2022-12-15T17:52:18.497Z,0.46
2022-12-15T17:54:47.540Z,0.45
2022-12-15T17:57:15.170Z,0.44
2022-12-15T17:59:44.909Z,0.37
2022-12-15T18:02:16.292Z,0.36
2022-12-15T18:04:45.036Z,0.42
2022-12-15T18:07:17.978Z,0.47
2022-12-15T18:09:47.811Z,0.29
2022-12-15T18:12:20.130Z,0.33
2022-12-15T18:14:47.985Z,0.32
2022-12-15T18:17:15.859Z,0.30
2022-12-15T18:19:43.503Z,0.24
2022-12-15T18:22:14.321Z,0.22
2022-12-15T18:24:42.260Z,0.21
2022-12-15T18:27:20.294Z,0.19
2022-12-15T18:29:48.032Z,0.21
2022-12-15T18:32:16.891Z,0.23
2022-12-15T18:34:44.715Z,0.21
2022-12-15T18:37:16.398Z,0.26
2022-12-15T18:39:45.052Z,0.31
2022-12-15T18:42:18.211Z,0.21
2022-12-15T18:44:48.374Z,0.16
2022-12-15T18:47:18.195Z,0.18
2022-12-15T18:49:46.270Z,0.24
2022-12-15T18:52:18.982Z,0.20
2022-12-15T18:54:47.946Z,0.17
2022-12-15T18:57:28.700Z,0.15
2022-12-15T18:59:59.384Z,0.16
2022-12-15T19:02:27.264Z,0.17
2022-12-15T19:04:55.414Z,0.17
2022-12-15T19:07:23.335Z,0.19
2022-12-15T19:09:51.314Z,0.16
2022-12-15T19:12:19.335Z,0.12
2022-12-15T19:14:50.640Z,0.11
2022-12-15T19:17:38.310Z,0.10
2022-12-15T19:20:25.043Z,0.09
2022-12-15T19:22:53.659Z,0.06
2022-12-15T19:25:26.138Z,0.10
2022-12-15T19:27:59.152Z,0.13
2022-12-15T19:30:31.108Z,0.16
2022-12-15T19:32:58.826Z,0.17
2022-12-15T19:35:28.355Z,0.11
2022-12-15T19:37:57.855Z,0.11
2022-12-15T19:40:29.402Z,0.04
2022-12-15T19:42:58.240Z,-0.02
2022-12-15T19:45:29.139Z,0.05
2022-12-15T19:47:56.979Z,0.13
2022-12-15T19:50:26.450Z,0.17
2022-12-15T19:52:58.052Z,0.19
2022-12-15T19:55:28.876Z,0.16
2022-12-15T19:57:56.566Z,0.25
2022-12-15T20:00:25.253Z,0.30
2022-12-15T20:02:56.688Z,0.32
2022-12-15T20:05:25.946Z,0.32
2022-12-15T20:07:54.782Z,0.26
2022-12-15T20:10:31.228Z,0.26
2022-12-15T20:13:00.444Z,0.36
2022-12-15T20:15:28.579Z,0.37
2022-12-15T20:17:57.970Z,0.34
2022-12-15T20:20:27.920Z,0.37
2022-12-15T20:22:57.767Z,0.37
2022-12-15T20:25:28.472Z,0.36
2022-12-15T20:27:56.622Z,0.31
2022-12-15T20:30:27.152Z,0.24
2022-12-15T20:32:55.194Z,0.17
2022-12-15T20:35:25.232Z,0.32
2022-12-15T20:37:53.470Z,0.28
2022-12-15T20:40:24.411Z,0.29
2022-12-15T20:42:53.308Z,0.25
2022-12-15T20:45:23.897Z,0.26
2022-12-15T20:47:54.205Z,0.29
2022-12-15T20:50:28.945Z,0.25
2022-12-15T20:52:56.657Z,0.25
2022-12-15T20:55:24.511Z,0.27
2022-12-15T20:57:52.208Z,0.28
2022-12-15T21:00:20.756Z,0.30
2022-12-15T21:02:49.209Z,0.19
2022-12-15T21:05:26.671Z,0.16
2022-12-15T21:07:55.696Z,0.17
2022-12-15T21:10:23.318Z,0.20
2022-12-15T21:12:51.801Z,0.27
2022-12-15T21:15:22.147Z,0.37
2022-12-15T21:18:29.184Z,0.45
2022-12-15T21:20:43.904Z,0.54
2022-12-15T21:23:20.721Z,0.41
2022-12-15T21:25:48.884Z,0.36
2022-12-15T21:28:17.170Z,0.27
2022-12-15T21:30:45.141Z,0.23
2022-12-15T21:33:13.139Z,0.14
2022-12-15T21:35:42.790Z,0.10
2022-12-15T21:38:34.923Z,0.19
2022-12-15T21:41:05.183Z,0.16
2022-12-15T21:43:36.392Z,0.14
2022-12-15T21:46:12.348Z,0.17
2022-12-15T21:48:57.608Z,0.15
2022-12-15T21:51:25.839Z,0.11
2022-12-15T21:53:55.064Z,0.20
2022-12-15T21:56:22.914Z,0.18
2022-12-15T21:58:52.617Z,0.12
2022-12-15T22:01:24.629Z,0.01
2022-12-15T22:03:54.650Z,-0.03
2022-12-15T22:06:24.399Z,-0.06
2022-12-15T22:08:55.143Z,-0.05
2022-12-15T22:11:24.857Z,-0.03
2022-12-15T22:13:55.163Z,-0.10
2022-12-15T22:16:23.729Z,-0.18
2022-12-15T22:18:53.415Z,-0.22
2022-12-15T22:21:23.297Z,-0.28
2022-12-15T22:23:51.140Z,-0.36
2022-12-15T22:26:24.867Z,-0.29
2022-12-15T22:28:52.719Z,-0.20
2022-12-15T22:31:22.709Z,-0.13
2022-12-15T22:33:50.531Z,-0.12
2022-12-15T22:36:18.477Z,-0.13
2022-12-15T22:38:46.947Z,-0.16
2022-12-15T22:41:19.820Z,-0.22
2022-12-15T22:43:51.582Z,-0.25
2022-12-15T22:46:22.611Z,-0.22
2022-12-15T22:48:52.231Z,-0.14
2022-12-15T22:51:20.814Z,-0.06
2022-12-15T22:53:48.898Z,-0.04
2022-12-15T22:56:23.728Z,-0.09
2022-12-15T22:58:57.214Z,-0.02
2022-12-15T23:01:26.802Z,0.03
2022-12-15T23:03:55.609Z,-0.05
2022-12-15T23:06:23.788Z,-0.08
2022-12-15T23:08:55.647Z,0.07
2022-12-15T23:11:39.403Z,0.10
2022-12-15T23:14:10.435Z,0.01
2022-12-15T23:16:37.976Z,0.05
2022-12-15T23:19:08.351Z,0.00
2022-12-15T23:21:37.013Z,-0.14
2022-12-15T23:24:04.959Z,-0.08
2022-12-15T23:26:33.003Z,-0.11
2022-12-15T23:29:00.691Z,-0.27
2022-12-15T23:31:30.253Z,-0.36
2022-12-15T23:33:58.204Z,-0.42
2022-12-15T23:36:25.995Z,-0.49
2022-12-15T23:38:56.026Z,-0.49
2022-12-15T23:41:23.714Z,-0.54
2022-12-15T23:43:51.477Z,-0.57
2022-12-15T23:46:19.703Z,-0.52
2022-12-15T23:48:48.778Z,-0.56
2022-12-15T23:51:18.612Z,-0.54
2022-12-15T23:53:47.872Z,-0.51
2022-12-15T23:56:17.807Z,-0.55
2022-12-15T23:58:47.246Z,-0.54
